Time;durP1;ratioP1;P1;durP2;ratioP2;P2;SDS_P1;SDS_P2;PMS_P1;PMS_P2;Temp;Humidity;BMP_temperature;BMP_pressure;BME280_temperature;BME280_humidity;BME280_pressure;Samples;Min_cycle;Max_cycle;Signal;HPM_P1;HPM_P2
2024/02/23 00:00:52;;;;;;;0.55;0.38;;;21.70;44.70;;;;;;10332856;28;20043;-56
2024/02/23 00:05:55;;;;;;;0.30;0.30;;;21.80;44.40;;;;;;10339636;28;20486;-57
2024/02/23 00:10:56;;;;;;;0.35;0.30;;;21.80;44.30;;;;;;10320030;28;20134;-60
2024/02/23 00:15:58;;;;;;;0.68;0.30;;;21.70;44.40;;;;;;10323636;28;20038;-60
2024/02/23 00:21:01;;;;;;;0.30;0.30;;;21.80;44.30;;;;;;10319325;28;20062;-58
2024/02/23 00:26:03;;;;;;;0.50;0.30;;;21.60;44.50;;;;;;10342815;28;20042;-56
2024/02/23 00:31:04;;;;;;;0.20;0.20;;;21.60;44.50;;;;;;10346937;28;20125;-60
2024/02/23 00:36:07;;;;;;;0.38;0.32;;;21.50;44.50;;;;;;10341939;28;20056;-60
2024/02/23 00:41:10;;;;;;;1.00;0.30;;;21.50;44.60;;;;;;10336629;28;20089;-58
2024/02/23 00:46:12;;;;;;;0.52;0.40;;;21.50;44.40;;;;;;10339606;28;20144;-60
2024/02/23 00:51:14;;;;;;;0.40;0.30;;;21.50;44.40;;;;;;10341020;28;20074;-58
2024/02/23 00:56:16;;;;;;;0.35;0.28;;;21.50;44.30;;;;;;10341303;28;20042;-60
2024/02/23 01:01:18;;;;;;;0.82;0.40;;;21.40;44.30;;;;;;10332656;28;20053;-59
2024/02/23 01:06:21;;;;;;;0.20;0.20;;;21.40;44.20;;;;;;10331796;28;20058;-59
2024/02/23 01:11:22;;;;;;;0.32;0.30;;;21.40;44.20;;;;;;10325670;28;20045;-60
2024/02/23 01:16:24;;;;;;;0.98;0.30;;;21.40;44.00;;;;;;10328072;28;20488;-58
2024/02/23 01:21:27;;;;;;;0.98;0.40;;;21.40;44.00;;;;;;10335203;28;20062;-58
2024/02/23 01:26:29;;;;;;;0.65;0.30;;;21.30;44.00;;;;;;10319896;28;20077;-60
2024/02/23 01:31:30;;;;;;;0.30;0.28;;;21.20;44.20;;;;;;10342131;28;20042;-60
2024/02/23 01:36:33;;;;;;;0.30;0.30;;;21.20;44.20;;;;;;10356775;28;20072;-58
2024/02/23 01:41:35;;;;;;;0.30;0.22;;;21.30;44.00;;;;;;10366245;28;20070;-60
2024/02/23 01:46:37;;;;;;;0.30;0.30;;;21.20;44.10;;;;;;10358454;28;20050;-61
2024/02/23 01:51:39;;;;;;;0.52;0.20;;;21.20;43.90;;;;;;10359174;28;20050;-60
2024/02/23 01:56:42;;;;;;;0.30;0.20;;;21.20;44.00;;;;;;10357266;28;20049;-58
2024/02/23 02:01:44;;;;;;;0.25;0.25;;;21.20;43.90;;;;;;10357377;28;20046;-58
2024/02/23 02:06:47;;;;;;;0.43;0.20;;;21.10;44.00;;;;;;10357831;28;20431;-60
2024/02/23 02:11:49;;;;;;;0.52;0.22;;;21.00;44.00;;;;;;10355033;28;20042;-59
2024/02/23 02:16:50;;;;;;;0.40;0.30;;;21.10;43.90;;;;;;10349282;28;20050;-59
2024/02/23 02:21:53;;;;;;;0.20;0.20;;;21.00;44.00;;;;;;10348729;28;20050;-58
2024/02/23 02:26:55;;;;;;;1.10;0.20;;;21.00;44.00;;;;;;10347439;28;20060;-60
2024/02/23 02:31:56;;;;;;;0.20;0.20;;;20.80;44.20;;;;;;10351850;28;20052;-58
2024/02/23 02:37:00;;;;;;;0.20;0.20;;;20.90;44.10;;;;;;10356512;28;20050;-58
2024/02/23 02:42:02;;;;;;;0.20;0.20;;;20.80;44.10;;;;;;10353469;28;20411;-55
2024/02/23 02:47:04;;;;;;;0.20;0.20;;;20.90;43.90;;;;;;10356964;28;20056;-59
2024/02/23 02:52:08;;;;;;;0.20;0.20;;;20.80;44.00;;;;;;10363988;28;20488;-58
2024/02/23 02:57:09;;;;;;;0.60;0.20;;;21.10;46.50;;;;;;10362764;28;20038;-59
2024/02/23 03:02:11;;;;;;;0.20;0.20;;;21.00;46.00;;;;;;10358522;28;20048;-60
2024/02/23 03:07:14;;;;;;;0.20;0.20;;;20.60;44.50;;;;;;10354267;28;20042;-56
2024/02/23 03:12:16;;;;;;;0.20;0.20;;;20.70;43.80;;;;;;10359787;28;20039;-60
2024/02/23 03:17:17;;;;;;;0.20;0.20;;;20.50;44.00;;;;;;10355605;28;20052;-55
2024/02/23 03:22:20;;;;;;;0.30;0.30;;;20.50;44.10;;;;;;10355298;28;20038;-60
2024/02/23 03:27:23;;;;;;;0.47;0.22;;;20.50;44.10;;;;;;10349401;28;20071;-57
2024/02/23 03:32:25;;;;;;;0.20;0.20;;;20.40;44.10;;;;;;10348721;28;20117;-60
2024/02/23 03:37:27;;;;;;;0.30;0.20;;;20.30;44.00;;;;;;10350664;28;20172;-60
2024/02/23 03:42:29;;;;;;;0.20;0.20;;;20.30;44.10;;;;;;10350499;28;20048;-58
2024/02/23 03:47:31;;;;;;;0.73;0.20;;;20.40;43.80;;;;;;10347516;28;20482;-57
2024/02/23 03:52:34;;;;;;;0.20;0.20;;;20.30;43.80;;;;;;10351750;28;20057;-57
2024/02/23 03:57:35;;;;;;;0.20;0.20;;;20.20;43.90;;;;;;10352968;28;20057;-57
2024/02/23 04:02:37;;;;;;;0.20;0.20;;;20.20;43.90;;;;;;10362541;28;20128;-55
2024/02/23 04:07:40;;;;;;;0.55;0.20;;;20.30;43.60;;;;;;10370672;28;20060;-52
2024/02/23 04:12:41;;;;;;;0.30;0.20;;;20.00;44.90;;;;;;10366564;28;20132;-51
2024/02/23 04:17:43;;;;;;;0.20;0.20;;;20.10;45.00;;;;;;10360496;28;20058;-54
2024/02/23 04:22:46;;;;;;;0.20;0.20;;;20.60;44.30;;;;;;10354252;28;20526;-56
2024/02/23 04:27:48;;;;;;;0.20;0.20;;;20.80;44.10;;;;;;10356672;28;20057;-59
2024/02/23 04:32:49;;;;;;;0.20;0.20;;;20.90;43.80;;;;;;10360420;28;20049;-55
2024/02/23 04:37:52;;;;;;;0.20;0.20;;;21.00;43.80;;;;;;10357935;28;20500;-56
2024/02/23 04:42:54;;;;;;;0.20;0.20;;;20.90;43.90;;;;;;10357969;28;20480;-53
2024/02/23 04:47:55;;;;;;;0.20;0.20;;;20.80;44.20;;;;;;10355773;28;20419;-54
2024/02/23 04:52:58;;;;;;;0.30;0.22;;;20.90;44.60;;;;;;10356515;28;20072;-53
2024/02/23 04:58:00;;;;;;;0.30;0.25;;;21.20;43.50;;;;;;10355747;28;20056;-59
2024/02/23 05:03:03;;;;;;;0.38;0.30;;;21.40;43.30;;;;;;10351523;28;20052;-55
2024/02/23 05:08:06;;;;;;;0.20;0.20;;;21.50;42.90;;;;;;10351777;28;20153;-55
2024/02/23 05:13:08;;;;;;;0.20;0.20;;;21.40;43.20;;;;;;10357095;28;20046;-55
2024/02/23 05:18:09;;;;;;;0.30;0.30;;;21.50;43.10;;;;;;10365335;28;20072;-52
2024/02/23 05:23:15;;;;;;;0.35;0.25;;;21.40;43.30;;;;;;10361876;28;20464;-54
2024/02/23 05:28:17;;;;;;;0.20;0.20;;;21.40;43.40;;;;;;10357778;28;20074;-56
2024/02/23 05:33:20;;;;;;;0.20;0.20;;;21.40;43.40;;;;;;10353605;28;20121;-55
2024/02/23 05:38:23;;;;;;;0.68;0.30;;;21.50;43.30;;;;;;10349449;28;20233;-55
2024/02/23 05:43:24;;;;;;;0.43;0.30;;;21.50;43.20;;;;;;10345689;28;20053;-54
2024/02/23 05:48:26;;;;;;;1.20;0.30;;;21.50;43.40;;;;;;10352593;28;20534;-57
2024/02/23 05:53:32;;;;;;;0.85;0.30;;;21.60;43.30;;;;;;10355474;28;20037;-55
2024/02/23 05:58:34;;;;;;;0.35;0.30;;;21.60;43.20;;;;;;10354292;28;20582;-55
2024/02/23 06:03:35;;;;;;;0.70;0.30;;;21.70;43.30;;;;;;10346624;28;20042;-57
2024/02/23 06:08:38;;;;;;;0.28;0.28;;;21.80;43.80;;;;;;10348942;28;20046;-59
2024/02/23 06:13:40;;;;;;;0.68;0.40;;;21.80;43.20;;;;;;10349336;28;20441;-58
2024/02/23 06:18:41;;;;;;;0.57;0.40;;;21.80;43.00;;;;;;10344152;28;20424;-59
2024/02/23 06:23:45;;;;;;;0.30;0.30;;;21.90;42.80;;;;;;10302260;28;20056;-59
2024/02/23 06:28:46;;;;;;;0.30;0.20;;;21.90;42.80;;;;;;10354439;28;20054;-57
2024/02/23 06:33:49;;;;;;;0.50;0.38;;;21.90;42.80;;;;;;10356756;28;20052;-52
2024/02/23 06:38:52;;;;;;;0.32;0.25;;;21.70;43.10;;;;;;10355165;28;20058;-52
2024/02/23 06:43:53;;;;;;;0.30;0.30;;;21.70;43.10;;;;;;10353226;28;20050;-54
2024/02/23 06:48:55;;;;;;;0.43;0.30;;;21.50;43.40;;;;;;10348194;28;20054;-57
2024/02/23 06:53:58;;;;;;;1.00;0.40;;;21.50;43.50;;;;;;10350404;28;20049;-55
2024/02/23 06:59:00;;;;;;;0.40;0.40;;;21.40;43.50;;;;;;10344918;28;20054;-58
2024/02/23 07:04:02;;;;;;;0.30;0.30;;;21.40;43.40;;;;;;10349528;28;20060;-52
2024/02/23 07:09:05;;;;;;;0.50;0.40;;;21.40;43.60;;;;;;10354637;28;20052;-55
2024/02/23 07:14:07;;;;;;;0.50;0.28;;;21.40;43.50;;;;;;10343744;28;20046;-58
2024/02/23 07:19:09;;;;;;;0.50;0.40;;;21.40;43.70;;;;;;10347919;28;20050;-58
2024/02/23 07:24:12;;;;;;;0.47;0.30;;;21.40;43.50;;;;;;10351676;28;20057;-58
2024/02/23 07:29:13;;;;;;;0.57;0.30;;;21.40;43.60;;;;;;10351194;28;20068;-54
2024/02/23 07:34:15;;;;;;;0.25;0.20;;;21.30;43.60;;;;;;10352832;28;20042;-56
2024/02/23 07:39:18;;;;;;;0.98;0.25;;;21.30;43.70;;;;;;10361363;28;20054;-53
2024/02/23 07:44:20;;;;;;;0.47;0.30;;;21.30;43.60;;;;;;10361656;28;20149;-54
2024/02/23 07:49:22;;;;;;;0.38;0.38;;;21.30;43.70;;;;;;10365082;28;20119;-54
2024/02/23 07:54:25;;;;;;;0.32;0.30;;;21.30;43.90;;;;;;10358959;28;20121;-52
2024/02/23 07:59:28;;;;;;;0.95;0.40;;;21.30;43.80;;;;;;10356584;28;20038;-56
2024/02/23 08:04:29;;;;;;;0.30;0.30;;;21.20;44.00;;;;;;10356811;28;20056;-55
2024/02/23 08:09:33;;;;;;;0.40;0.30;;;21.30;43.70;;;;;;10360609;28;20133;-57
2024/02/23 08:14:34;;;;;;;0.50;0.40;;;21.20;43.80;;;;;;10361683;28;20670;-54
2024/02/23 08:19:36;;;;;;;0.40;0.30;;;21.30;43.70;;;;;;10358820;28;20085;-54
2024/02/23 08:24:39;;;;;;;0.40;0.30;;;21.30;43.70;;;;;;10358071;28;20422;-55
2024/02/23 08:29:41;;;;;;;0.40;0.40;;;21.20;43.90;;;;;;10355123;28;20060;-53
2024/02/23 08:34:42;;;;;;;0.73;0.40;;;21.30;43.80;;;;;;10352313;28;20042;-54
2024/02/23 08:39:45;;;;;;;0.75;0.40;;;21.20;43.80;;;;;;10354718;28;20049;-53
2024/02/23 08:44:47;;;;;;;0.77;0.50;;;21.30;43.80;;;;;;10360002;28;20047;-54
2024/02/23 08:49:49;;;;;;;0.47;0.40;;;21.40;43.60;;;;;;10361886;28;20038;-57
2024/02/23 08:54:52;;;;;;;1.08;0.40;;;21.30;43.50;;;;;;10367870;28;20050;-55
2024/02/23 08:59:53;;;;;;;0.80;0.40;;;21.40;43.50;;;;;;10363961;28;20038;-54
2024/02/23 09:04:55;;;;;;;0.32;0.30;;;21.30;43.70;;;;;;10361306;28;20041;-57
2024/02/23 09:09:58;;;;;;;0.40;0.40;;;21.30;43.60;;;;;;10354682;28;20111;-54
2024/02/23 09:14:59;;;;;;;0.88;0.40;;;21.30;43.70;;;;;;10354931;28;20052;-57
2024/02/23 09:20:01;;;;;;;0.63;0.40;;;21.40;43.70;;;;;;10357154;28;20048;-56
2024/02/23 09:25:05;;;;;;;0.45;0.40;;;21.30;43.70;;;;;;10358967;28;20046;-53
2024/02/23 09:30:08;;;;;;;0.55;0.50;;;21.30;43.80;;;;;;10353696;28;20049;-55
2024/02/23 09:35:10;;;;;;;1.15;0.40;;;21.20;43.90;;;;;;10349736;28;20571;-54
2024/02/23 09:40:14;;;;;;;0.45;0.40;;;21.30;43.80;;;;;;10355051;28;20124;-55
2024/02/23 09:45:17;;;;;;;0.75;0.43;;;21.30;43.70;;;;;;10352111;28;20096;-54
2024/02/23 09:50:21;;;;;;;0.65;0.40;;;21.40;43.70;;;;;;10351977;28;20042;-57
2024/02/23 09:55:23;;;;;;;0.88;0.50;;;21.40;43.80;;;;;;10353165;28;20115;-53
2024/02/23 10:00:25;;;;;;;0.73;0.40;;;21.40;43.70;;;;;;10357624;28;20065;-53
2024/02/23 10:05:30;;;;;;;0.75;0.32;;;21.40;43.60;;;;;;10361675;28;20045;-55
2024/02/23 10:10:34;;;;;;;0.30;0.30;;;21.40;43.60;;;;;;10363000;28;20619;-53
2024/02/23 10:15:36;;;;;;;0.65;0.30;;;21.40;43.70;;;;;;10360198;28;20512;-53
2024/02/23 10:20:38;;;;;;;0.55;0.32;;;21.30;43.70;;;;;;10356005;28;20508;-53
2024/02/23 10:25:41;;;;;;;0.50;0.40;;;21.50;43.50;;;;;;10357213;28;20045;-54
2024/02/23 10:30:43;;;;;;;0.60;0.40;;;21.40;43.70;;;;;;10360109;28;20050;-56
2024/02/23 10:35:44;;;;;;;0.57;0.40;;;21.40;43.50;;;;;;10359004;28;20611;-53
2024/02/23 10:40:47;;;;;;;0.70;0.40;;;21.50;43.50;;;;;;10351663;28;20093;-54
2024/02/23 10:45:49;;;;;;;0.63;0.40;;;21.40;43.50;;;;;;10347817;28;20052;-56
2024/02/23 10:50:54;;;;;;;0.40;0.30;;;21.50;43.50;;;;;;10344403;28;20049;-56
2024/02/23 10:55:58;;;;;;;0.30;0.30;;;21.50;43.60;;;;;;10345296;28;20041;-52
2024/02/23 11:01:00;;;;;;;1.30;0.50;;;21.50;43.40;;;;;;10356218;28;20527;-53
2024/02/23 11:06:02;;;;;;;0.82;0.47;;;21.50;43.50;;;;;;10358600;28;20049;-55
2024/02/23 11:11:10;;;;;;;0.32;0.32;;;21.50;43.50;;;;;;10356372;28;20518;-54
2024/02/23 11:16:11;;;;;;;0.82;0.50;;;21.50;43.50;;;;;;10360833;28;20049;-54
2024/02/23 11:21:13;;;;;;;0.85;0.40;;;21.50;43.60;;;;;;10362434;28;20053;-53
2024/02/23 11:26:16;;;;;;;0.80;0.40;;;21.50;43.60;;;;;;10354341;28;20120;-53
2024/02/23 11:31:20;;;;;;;1.10;0.40;;;21.50;43.60;;;;;;10354388;28;20055;-54
2024/02/23 11:36:25;;;;;;;0.45;0.35;;;21.50;43.80;;;;;;10358351;28;20060;-55
2024/02/23 11:41:28;;;;;;;0.50;0.40;;;21.50;43.70;;;;;;10360396;28;20043;-54
2024/02/23 11:46:30;;;;;;;0.88;0.50;;;21.60;43.60;;;;;;10360986;28;20503;-55
2024/02/23 11:51:32;;;;;;;0.52;0.40;;;21.60;43.50;;;;;;10356843;28;20574;-60
2024/02/23 11:56:34;;;;;;;0.63;0.45;;;21.50;43.60;;;;;;10346157;28;20474;-56
2024/02/23 12:01:36;;;;;;;0.52;0.40;;;21.60;43.60;;;;;;10341342;28;20069;-56
2024/02/23 12:06:38;;;;;;;0.60;0.40;;;21.60;43.60;;;;;;10339156;28;20141;-56
2024/02/23 12:11:41;;;;;;;1.38;0.40;;;21.60;43.60;;;;;;10352310;28;20129;-58
2024/02/23 12:16:43;;;;;;;0.45;0.40;;;21.60;43.80;;;;;;10354481;28;20042;-55
2024/02/23 12:21:46;;;;;;;0.73;0.40;;;21.60;43.70;;;;;;10360900;28;20127;-54
2024/02/23 12:26:55;;;;;;;0.60;0.40;;;21.60;43.90;;;;;;10365169;28;20054;-58
2024/02/23 12:32:04;;;;;;;0.82;0.50;;;21.70;43.70;;;;;;10367019;28;20408;-54
2024/02/23 12:37:06;;;;;;;0.77;0.40;;;21.60;43.70;;;;;;10360297;28;20052;-55
2024/02/23 12:42:09;;;;;;;0.30;0.30;;;21.60;43.70;;;;;;10358516;28;20042;-54
2024/02/23 12:47:10;;;;;;;0.40;0.40;;;21.60;43.80;;;;;;10360060;28;20048;-57
2024/02/23 12:52:13;;;;;;;0.47;0.30;;;21.60;43.80;;;;;;10361026;28;20042;-52
2024/02/23 12:57:15;;;;;;;0.55;0.30;;;21.50;43.80;;;;;;10363635;28;20501;-52
2024/02/23 13:02:17;;;;;;;0.47;0.40;;;21.60;43.80;;;;;;10359060;28;20038;-59
2024/02/23 13:07:19;;;;;;;0.73;0.50;;;21.60;43.80;;;;;;10355812;28;20043;-56
2024/02/23 13:12:22;;;;;;;1.00;0.50;;;21.60;43.80;;;;;;10354080;28;20053;-53
2024/02/23 13:17:23;;;;;;;0.60;0.35;;;21.60;44.00;;;;;;10348676;28;20096;-52
2024/02/23 13:22:25;;;;;;;0.50;0.40;;;21.60;43.90;;;;;;10351789;28;20129;-54
2024/02/23 13:27:29;;;;;;;0.47;0.30;;;21.70;43.80;;;;;;10353581;28;20056;-58
2024/02/23 13:32:31;;;;;;;0.65;0.35;;;21.60;43.90;;;;;;10354701;28;20038;-56
2024/02/23 13:37:33;;;;;;;0.35;0.30;;;21.60;43.90;;;;;;10357005;28;20058;-56
2024/02/23 13:42:36;;;;;;;0.32;0.32;;;21.60;43.80;;;;;;10366575;28;20456;-57
2024/02/23 13:47:37;;;;;;;0.98;0.50;;;21.90;43.60;;;;;;10361189;28;20056;-58
2024/02/23 13:52:39;;;;;;;0.75;0.40;;;21.80;43.80;;;;;;10360724;28;20048;-57
2024/02/23 13:57:42;;;;;;;0.30;0.30;;;21.90;43.90;;;;;;10358310;28;20057;-59
2024/02/23 14:02:44;;;;;;;0.55;0.40;;;21.90;43.90;;;;;;10353401;28;20052;-58
2024/02/23 14:07:46;;;;;;;0.60;0.30;;;22.00;43.70;;;;;;10353696;28;20061;-58
2024/02/23 14:12:50;;;;;;;0.30;0.30;;;21.90;43.70;;;;;;10356229;28;20034;-59
2024/02/23 14:17:52;;;;;;;0.30;0.30;;;21.90;43.80;;;;;;10355966;28;20980;-58
2024/02/23 14:22:53;;;;;;;0.20;0.20;;;22.00;43.60;;;;;;10351074;28;20412;-58
2024/02/23 14:27:56;;;;;;;0.55;0.40;;;22.10;43.70;;;;;;10352635;28;20072;-59
2024/02/23 14:32:58;;;;;;;0.30;0.30;;;21.90;43.90;;;;;;10352241;28;20046;-56
2024/02/23 14:37:59;;;;;;;0.40;0.30;;;22.00;44.10;;;;;;10350077;28;20141;-58
2024/02/23 14:43:02;;;;;;;0.20;0.20;;;22.00;44.10;;;;;;10348559;28;20042;-58
2024/02/23 14:48:04;;;;;;;0.32;0.30;;;22.00;44.30;;;;;;10346959;28;20049;-58
2024/02/23 14:53:08;;;;;;;0.35;0.35;;;22.00;44.10;;;;;;10361425;28;20042;-57
2024/02/23 14:58:11;;;;;;;0.30;0.30;;;22.00;44.30;;;;;;10361332;28;20164;-58
2024/02/23 15:03:12;;;;;;;0.65;0.45;;;22.10;44.30;;;;;;10360073;28;20041;-59
2024/02/23 15:08:14;;;;;;;0.38;0.30;;;22.00;44.30;;;;;;10355046;28;20132;-59
2024/02/23 15:13:17;;;;;;;0.65;0.30;;;22.00;44.60;;;;;;10350614;28;20056;-57
2024/02/23 15:18:18;;;;;;;0.30;0.30;;;22.10;44.50;;;;;;10347364;28;20056;-57
2024/02/23 15:23:23;;;;;;;0.20;0.20;;;22.10;44.30;;;;;;10346454;28;20053;-58
2024/02/23 15:28:26;;;;;;;0.30;0.30;;;22.10;44.30;;;;;;10351280;28;20054;-57
2024/02/23 15:33:28;;;;;;;0.32;0.30;;;22.10;45.00;;;;;;10351570;28;20047;-58
2024/02/23 15:38:29;;;;;;;0.60;0.30;;;22.20;44.20;;;;;;10349327;28;20053;-58
2024/02/23 15:43:32;;;;;;;0.52;0.30;;;22.10;44.50;;;;;;10350065;28;20046;-57
2024/02/23 15:48:34;;;;;;;0.40;0.30;;;22.10;44.50;;;;;;10349237;28;20115;-58
2024/02/23 15:53:35;;;;;;;0.45;0.32;;;22.30;44.30;;;;;;10346778;28;20041;-57
2024/02/23 15:58:38;;;;;;;0.70;0.50;;;22.30;44.10;;;;;;10352075;28;20058;-58
2024/02/23 16:03:40;;;;;;;0.30;0.30;;;22.30;44.30;;;;;;10360664;28;20164;-57
2024/02/23 16:08:43;;;;;;;0.30;0.30;;;22.30;44.30;;;;;;10364020;28;20077;-59
2024/02/23 16:13:46;;;;;;;0.57;0.50;;;22.30;44.40;;;;;;10364594;28;20057;-55
2024/02/23 16:18:48;;;;;;;0.30;0.30;;;22.20;44.40;;;;;;10360421;28;20050;-60
2024/02/23 16:23:49;;;;;;;0.20;0.20;;;22.30;44.30;;;;;;10358269;28;20077;-59
2024/02/23 16:28:52;;;;;;;0.82;0.43;;;22.30;44.50;;;;;;10352125;28;20140;-58
2024/02/23 16:33:54;;;;;;;0.40;0.40;;;22.30;44.40;;;;;;10349550;28;20543;-55
2024/02/23 16:38:55;;;;;;;0.30;0.30;;;22.40;44.30;;;;;;10345051;28;20050;-57
2024/02/23 16:43:58;;;;;;;1.48;0.30;;;22.40;44.40;;;;;;10354288;28;20056;-59
2024/02/23 16:49:00;;;;;;;0.40;0.30;;;22.40;44.30;;;;;;10358907;28;20553;-58
2024/02/23 16:54:02;;;;;;;0.30;0.30;;;22.40;44.30;;;;;;10353049;28;20046;-58
2024/02/23 16:59:05;;;;;;;0.40;0.40;;;22.40;44.40;;;;;;10351839;28;20050;-57
2024/02/23 17:04:06;;;;;;;0.30;0.30;;;22.50;44.30;;;;;;10355808;28;20484;-56
2024/02/23 17:09:09;;;;;;;0.30;0.30;;;22.40;44.30;;;;;;10350063;28;20414;-58
2024/02/23 17:14:12;;;;;;;0.22;0.22;;;22.50;44.30;;;;;;10349800;28;20042;-59
2024/02/23 17:19:16;;;;;;;0.38;0.38;;;22.50;44.20;;;;;;10361532;28;20512;-56
2024/02/23 17:24:18;;;;;;;0.30;0.30;;;22.60;43.90;;;;;;10361056;28;20144;-59
2024/02/23 17:29:21;;;;;;;0.57;0.30;;;22.50;44.70;;;;;;10360485;28;20479;-57
2024/02/23 17:34:22;;;;;;;0.30;0.30;;;22.50;44.30;;;;;;10355774;28;20132;-57
2024/02/23 17:39:24;;;;;;;0.30;0.30;;;22.50;44.20;;;;;;10354321;28;20041;-58
2024/02/23 17:44:27;;;;;;;0.40;0.40;;;22.60;44.20;;;;;;10349783;28;20084;-58
2024/02/23 17:49:29;;;;;;;0.32;0.32;;;22.50;44.10;;;;;;10348550;28;20060;-58
2024/02/23 17:54:30;;;;;;;0.40;0.40;;;22.60;44.30;;;;;;10356113;28;20053;-58
2024/02/23 17:59:33;;;;;;;0.40;0.40;;;22.70;44.10;;;;;;10354699;28;20060;-59
2024/02/23 18:04:35;;;;;;;0.30;0.30;;;22.60;44.20;;;;;;10354123;28;20038;-58
2024/02/23 18:09:37;;;;;;;0.30;0.30;;;22.50;44.30;;;;;;10349509;28;20061;-60
2024/02/23 18:14:40;;;;;;;0.40;0.40;;;22.60;44.30;;;;;;10348624;28;20057;-60
2024/02/23 18:19:42;;;;;;;0.30;0.30;;;22.60;44.30;;;;;;10352837;28;20165;-59
2024/02/23 18:24:44;;;;;;;0.40;0.40;;;22.60;44.30;;;;;;10354801;28;20085;-59
2024/02/23 18:29:47;;;;;;;0.30;0.30;;;22.60;44.50;;;;;;10363088;28;20049;-60
2024/02/23 18:34:48;;;;;;;0.30;0.30;;;22.70;44.20;;;;;;10359179;28;20064;-58
2024/02/23 18:39:50;;;;;;;0.30;0.30;;;22.80;44.00;;;;;;10359372;28;20133;-59
2024/02/23 18:44:53;;;;;;;0.30;0.30;;;22.80;44.00;;;;;;10357935;28;20089;-60
2024/02/23 18:49:55;;;;;;;0.35;0.30;;;22.70;44.30;;;;;;10351300;28;20042;-58
2024/02/23 18:54:57;;;;;;;0.38;0.38;;;22.70;44.20;;;;;;10351931;28;20070;-60
2024/02/23 19:00:00;;;;;;;0.30;0.30;;;22.70;44.20;;;;;;10355724;28;20054;-59
2024/02/23 19:05:02;;;;;;;0.30;0.30;;;22.80;44.30;;;;;;10352724;28;20510;-59
2024/02/23 19:10:06;;;;;;;0.30;0.30;;;22.80;44.10;;;;;;10349777;28;20142;-60
2024/02/23 19:15:10;;;;;;;0.30;0.30;;;22.90;43.90;;;;;;10347610;28;20079;-60
2024/02/23 19:20:12;;;;;;;0.30;0.30;;;23.00;43.70;;;;;;10349443;28;20141;-55
2024/02/23 19:25:14;;;;;;;0.40;0.30;;;23.00;43.60;;;;;;10353410;28;20123;-55
2024/02/23 19:30:17;;;;;;;0.30;0.30;;;23.10;43.50;;;;;;10353561;28;20385;-55
2024/02/23 19:35:19;;;;;;;0.80;0.35;;;22.90;43.70;;;;;;10359773;28;20073;-53
2024/02/23 19:40:22;;;;;;;0.43;0.43;;;22.90;43.90;;;;;;10361845;28;20483;-53
2024/02/23 19:45:25;;;;;;;0.43;0.43;;;22.80;44.00;;;;;;10366353;28;20046;-56
2024/02/23 19:50:27;;;;;;;0.35;0.30;;;22.80;43.90;;;;;;10366731;28;20053;-56
2024/02/23 19:55:28;;;;;;;0.50;0.50;;;22.70;44.00;;;;;;10364256;28;20132;-56
2024/02/23 20:00:31;;;;;;;0.40;0.30;;;22.70;44.00;;;;;;10360382;28;20049;-59
2024/02/23 20:05:33;;;;;;;0.30;0.30;;;22.70;43.90;;;;;;10365038;28;20072;-56
2024/02/23 20:10:35;;;;;;;0.85;0.32;;;22.70;44.00;;;;;;10366986;28;20520;-58
2024/02/23 20:15:38;;;;;;;0.40;0.32;;;22.60;44.00;;;;;;10362779;28;20046;-57
2024/02/23 20:20:40;;;;;;;0.30;0.30;;;22.60;44.10;;;;;;10358260;28;20125;-55
2024/02/23 20:25:42;;;;;;;0.30;0.30;;;22.40;44.20;;;;;;10354744;28;20638;-57
2024/02/23 20:30:45;;;;;;;0.35;0.35;;;22.40;44.20;;;;;;10350182;28;20054;-59
2024/02/23 20:35:46;;;;;;;0.57;0.50;;;22.30;44.30;;;;;;10353167;28;20137;-56
2024/02/23 20:40:48;;;;;;;0.30;0.30;;;22.40;44.10;;;;;;10364181;28;20137;-59
2024/02/23 20:45:51;;;;;;;0.60;0.43;;;22.50;43.90;;;;;;10358448;28;20453;-56
2024/02/23 20:50:53;;;;;;;0.30;0.30;;;22.40;43.90;;;;;;10360620;28;20518;-55
2024/02/23 20:55:54;;;;;;;0.40;0.40;;;22.30;44.00;;;;;;10365858;28;20495;-56
2024/02/23 21:00:57;;;;;;;0.30;0.30;;;22.30;44.00;;;;;;10363210;28;20503;-58
2024/02/23 21:05:59;;;;;;;0.40;0.30;;;22.30;44.00;;;;;;10356913;28;20092;-59
2024/02/23 21:11:02;;;;;;;0.40;0.40;;;22.20;44.00;;;;;;10354561;28;20077;-59
2024/02/23 21:16:06;;;;;;;0.52;0.40;;;22.20;44.00;;;;;;10362791;28;20431;-59
2024/02/23 21:21:08;;;;;;;0.35;0.35;;;22.30;43.60;;;;;;10360783;28;20687;-57
2024/02/23 21:26:10;;;;;;;0.40;0.40;;;22.40;43.50;;;;;;10363143;28;20532;-57
2024/02/23 21:31:15;;;;;;;0.40;0.32;;;22.30;43.60;;;;;;10357520;28;20523;-57
2024/02/23 21:36:16;;;;;;;0.32;0.30;;;22.20;44.10;;;;;;10348961;28;20049;-58
2024/02/23 21:41:18;;;;;;;0.30;0.30;;;22.10;44.00;;;;;;10349061;28;20053;-59
2024/02/23 21:46:21;;;;;;;0.30;0.30;;;22.00;43.90;;;;;;10350132;28;20045;-59
2024/02/23 21:51:22;;;;;;;0.20;0.20;;;22.20;43.60;;;;;;10355478;28;20058;-57
2024/02/23 21:56:24;;;;;;;0.30;0.30;;;22.10;43.50;;;;;;10361713;28;20056;-59
2024/02/23 22:01:27;;;;;;;0.30;0.30;;;22.20;43.20;;;;;;10358014;28;20057;-58
2024/02/23 22:06:29;;;;;;;0.30;0.30;;;22.50;42.70;;;;;;10359446;28;20042;-59
2024/02/23 22:11:30;;;;;;;0.38;0.35;;;22.50;42.40;;;;;;10361728;28;20068;-58
2024/02/23 22:16:33;;;;;;;0.30;0.30;;;22.40;42.40;;;;;;10358892;28;20076;-58
2024/02/23 22:21:35;;;;;;;0.45;0.40;;;22.20;42.90;;;;;;10351528;28;20175;-58
2024/02/23 22:26:37;;;;;;;0.43;0.28;;;22.20;42.90;;;;;;10355281;28;20042;-59
2024/02/23 22:31:46;;;;;;;0.30;0.30;;;22.20;42.70;;;;;;10360025;28;20077;-59
2024/02/23 22:36:49;;;;;;;0.30;0.30;;;22.20;42.90;;;;;;10359108;28;20046;-60
2024/02/23 22:41:50;;;;;;;0.40;0.40;;;22.00;43.10;;;;;;10356077;28;20496;-58
2024/02/23 22:46:55;;;;;;;0.30;0.30;;;22.00;43.20;;;;;;10357057;28;20526;-58
2024/02/23 22:51:57;;;;;;;0.50;0.50;;;21.90;43.20;;;;;;10347067;28;20042;-59
2024/02/23 22:56:58;;;;;;;0.40;0.40;;;21.80;43.50;;;;;;10350754;28;20134;-59
2024/02/23 23:02:01;;;;;;;0.30;0.30;;;21.70;43.40;;;;;;10348053;28;20526;-58
2024/02/23 23:07:03;;;;;;;0.40;0.40;;;21.70;43.50;;;;;;10350480;28;20424;-59
2024/02/23 23:12:05;;;;;;;0.30;0.30;;;21.60;43.50;;;;;;10358027;28;20568;-58
2024/02/23 23:17:08;;;;;;;0.40;0.40;;;21.60;43.70;;;;;;10359381;28;20121;-58
2024/02/23 23:22:10;;;;;;;0.43;0.43;;;21.60;43.80;;;;;;10359181;28;20053;-60
2024/02/23 23:27:11;;;;;;;0.32;0.32;;;21.50;43.80;;;;;;10359547;28;20053;-57
2024/02/23 23:32:14;;;;;;;0.30;0.30;;;21.50;43.80;;;;;;10357357;28;20049;-58
2024/02/23 23:37:16;;;;;;;0.40;0.40;;;21.50;43.70;;;;;;10352108;28;20046;-59
2024/02/23 23:42:18;;;;;;;0.30;0.30;;;21.40;44.00;;;;;;10350293;28;20038;-60
2024/02/23 23:47:20;;;;;;;0.40;0.30;;;21.40;43.90;;;;;;10349819;28;20072;-58
2024/02/23 23:52:22;;;;;;;0.30;0.30;;;21.30;43.90;;;;;;10353624;28;20050;-60
2024/02/23 23:57:24;;;;;;;0.60;0.32;;;21.20;44.10;;;;;;10352212;28;20069;-57
